createdAt,value
2019-06-08T00:01:35.989Z,1.40
2019-06-08T00:03:38.156Z,1.25
2019-06-08T00:05:40.163Z,1.77
2019-06-08T00:07:42.209Z,1.60
2019-06-08T00:09:44.232Z,1.70
2019-06-08T00:11:46.309Z,1.98
2019-06-08T00:13:48.356Z,1.92
2019-06-08T00:15:51.410Z,1.75
2019-06-08T00:17:53.421Z,2.10
2019-06-08T00:19:55.514Z,1.72
2019-06-08T00:21:57.563Z,2.05
2019-06-08T00:23:59.569Z,1.90
2019-06-08T00:26:01.571Z,2.12
2019-06-08T00:28:03.995Z,1.85
2019-06-08T00:30:06.526Z,2.08
2019-06-08T00:32:08.607Z,2.20
2019-06-08T00:34:10.716Z,2.10
2019-06-08T00:36:12.842Z,2.55
2019-06-08T00:38:14.947Z,2.62
2019-06-08T00:40:17.004Z,2.52
2019-06-08T00:42:19.356Z,2.33
2019-06-08T00:44:21.565Z,2.40
2019-06-08T00:46:23.762Z,2.42
2019-06-08T00:48:25.788Z,2.25
2019-06-08T00:50:29.216Z,2.60
2019-06-08T00:52:31.538Z,1.80
2019-06-08T00:54:33.537Z,2.40
2019-06-08T00:56:35.578Z,2.15
2019-06-08T00:58:37.895Z,1.87
2019-06-08T01:00:39.874Z,2.62
2019-06-08T01:02:41.885Z,1.77
2019-06-08T01:04:44.019Z,1.82
2019-06-08T01:06:46.031Z,1.80
2019-06-08T01:08:48.091Z,1.90
2019-06-08T01:10:50.088Z,1.45
2019-06-08T01:12:52.200Z,1.57
2019-06-08T01:14:54.380Z,1.55
2019-06-08T01:16:56.392Z,1.27
2019-06-08T01:18:58.386Z,1.30
2019-06-08T01:21:00.401Z,1.37
2019-06-08T01:23:02.430Z,1.22
2019-06-08T01:25:05.647Z,1.50
2019-06-08T01:27:07.989Z,1.30
2019-06-08T01:29:10.012Z,1.15
2019-06-08T01:31:12.093Z,1.17
2019-06-08T01:33:14.095Z,1.25
2019-06-08T01:35:16.192Z,1.25
2019-06-08T01:37:18.198Z,1.25
2019-06-08T01:39:21.128Z,1.20
2019-06-08T01:41:23.306Z,1.10
2019-06-08T01:43:25.823Z,1.22
2019-06-08T01:45:32.789Z,1.07
2019-06-08T01:47:34.948Z,1.10
2019-06-08T01:49:36.931Z,1.30
2019-06-08T01:51:39.307Z,0.98
2019-06-08T01:53:41.350Z,1.12
2019-06-08T01:55:43.400Z,1.20
2019-06-08T01:57:45.663Z,0.80
2019-06-08T01:59:47.669Z,0.80
2019-06-08T02:01:49.741Z,0.90
2019-06-08T02:03:51.783Z,1.10
2019-06-08T02:05:53.813Z,1.02
2019-06-08T02:07:55.801Z,1.05
2019-06-08T02:09:59.265Z,0.90
2019-06-08T02:14:03.388Z,0.95
2019-06-08T02:18:07.252Z,0.98
2019-06-08T02:20:10.649Z,1.07
2019-06-08T02:24:14.486Z,1.12
2019-06-08T02:26:16.528Z,1.10
2019-06-08T02:28:18.547Z,1.12
2019-06-08T02:30:21.182Z,1.30
2019-06-08T02:32:23.287Z,0.72
2019-06-08T02:34:25.316Z,0.88
2019-06-08T02:36:28.840Z,0.98
2019-06-08T02:38:32.098Z,0.80
2019-06-08T02:40:36.893Z,0.78
2019-06-08T02:42:40.238Z,0.70
2019-06-08T02:44:42.648Z,0.65
2019-06-08T02:46:44.646Z,1.00
2019-06-08T02:49:02.270Z,0.80
2019-06-08T02:50:53.614Z,1.00
2019-06-08T02:52:55.697Z,1.00
2019-06-08T02:54:58.610Z,1.10
2019-06-08T02:57:02.945Z,1.30
2019-06-08T02:59:04.929Z,1.55
2019-06-08T03:01:07.725Z,1.20
2019-06-08T03:03:11.766Z,1.32
2019-06-08T03:05:15.347Z,0.90
2019-06-08T03:07:18.770Z,1.27
2019-06-08T03:09:22.753Z,1.20
2019-06-08T03:11:25.679Z,1.25
2019-06-08T03:13:31.196Z,1.40
2019-06-08T03:15:35.058Z,1.15
2019-06-08T03:17:37.813Z,1.35
2019-06-08T03:19:41.962Z,1.50
2019-06-08T03:21:44.103Z,1.50
2019-06-08T03:23:46.142Z,1.50
2019-06-08T03:25:52.915Z,1.57
2019-06-08T03:27:53.233Z,1.40
2019-06-08T03:29:55.237Z,1.25
2019-06-08T03:31:57.820Z,1.60
2019-06-08T03:33:59.960Z,1.32
2019-06-08T03:36:02.661Z,1.35
2019-06-08T03:38:04.771Z,1.30
2019-06-08T03:40:06.784Z,1.20
2019-06-08T03:42:08.811Z,1.27
2019-06-08T03:44:10.844Z,1.40
2019-06-08T03:46:12.845Z,1.50
2019-06-08T03:48:14.963Z,1.22
2019-06-08T03:50:16.976Z,1.30
2019-06-08T03:52:18.982Z,1.52
2019-06-08T03:54:21.326Z,1.30
2019-06-08T03:56:23.302Z,1.35
2019-06-08T03:58:25.311Z,1.47
2019-06-08T04:00:27.338Z,1.32
2019-06-08T04:02:29.872Z,1.47
2019-06-08T04:06:33.679Z,1.10
2019-06-08T04:08:37.991Z,1.42
2019-06-08T04:10:42.671Z,1.30
2019-06-08T04:12:46.270Z,1.15
2019-06-08T04:14:50.086Z,0.88
2019-06-08T04:16:52.269Z,1.20
2019-06-08T04:18:54.305Z,1.35
2019-06-08T04:20:56.318Z,1.40
2019-06-08T04:22:58.299Z,1.30
2019-06-08T04:25:00.341Z,1.60
2019-06-08T04:27:02.491Z,1.62
2019-06-08T04:29:04.497Z,1.35
2019-06-08T04:31:06.510Z,1.47
2019-06-08T04:33:08.792Z,1.50
2019-06-08T04:35:10.793Z,1.25
2019-06-08T04:37:15.837Z,1.37
2019-06-08T04:41:33.887Z,1.62
2019-06-08T04:43:35.866Z,1.82
2019-06-08T04:45:38.757Z,1.67
2019-06-08T04:47:43.604Z,1.40
2019-06-08T04:49:47.200Z,1.70
2019-06-08T04:51:49.850Z,1.80
2019-06-08T04:53:53.119Z,1.67
2019-06-08T04:55:55.348Z,1.52
2019-06-08T04:57:57.413Z,1.65
2019-06-08T04:59:59.659Z,1.70
2019-06-08T05:02:01.626Z,1.82
2019-06-08T05:04:03.913Z,1.70
2019-06-08T05:06:05.958Z,1.77
2019-06-08T05:08:07.952Z,1.77
2019-06-08T05:10:10.082Z,1.90
2019-06-08T05:12:12.078Z,1.60
2019-06-08T05:14:14.075Z,1.80
2019-06-08T05:16:16.051Z,2.05
2019-06-08T05:18:18.199Z,1.57
2019-06-08T05:20:20.181Z,2.00
2019-06-08T05:22:22.194Z,1.92
2019-06-08T05:24:24.218Z,1.80
2019-06-08T05:26:26.172Z,1.67
2019-06-08T05:28:28.234Z,1.95
2019-06-08T05:30:30.274Z,2.15
2019-06-08T05:32:33.282Z,1.80
2019-06-08T05:34:35.328Z,1.87
2019-06-08T05:36:37.357Z,1.85
2019-06-08T05:38:39.490Z,2.00
2019-06-08T05:40:41.612Z,1.98
2019-06-08T05:42:44.192Z,2.00
2019-06-08T05:44:47.819Z,1.98
2019-06-08T05:46:50.090Z,1.85
2019-06-08T05:51:03.349Z,1.95
2019-06-08T05:52:57.881Z,2.08
2019-06-08T05:54:59.880Z,2.25
2019-06-08T05:57:02.348Z,2.08
2019-06-08T06:01:05.987Z,2.27
2019-06-08T06:03:08.035Z,1.92
2019-06-08T06:05:10.593Z,1.92
2019-06-08T06:07:12.641Z,1.85
2019-06-08T06:09:14.802Z,2.12
2019-06-08T06:11:16.909Z,1.90
2019-06-08T06:13:18.924Z,1.90
2019-06-08T06:15:20.931Z,2.05
2019-06-08T06:17:23.087Z,2.20
2019-06-08T06:19:25.111Z,1.62
2019-06-08T06:21:28.261Z,2.35
2019-06-08T06:23:30.260Z,2.05
2019-06-08T06:25:32.313Z,2.33
2019-06-08T06:27:34.422Z,2.50
2019-06-08T06:29:36.446Z,2.70
2019-06-08T06:31:38.489Z,2.40
2019-06-08T06:33:41.872Z,2.90
2019-06-08T06:35:44.204Z,2.20
2019-06-08T06:37:46.254Z,2.80
2019-06-08T06:39:48.238Z,2.35
2019-06-08T06:41:50.243Z,2.40
2019-06-08T06:43:52.369Z,2.20
2019-06-08T06:45:54.783Z,2.20
2019-06-08T06:49:59.528Z,2.98
2019-06-08T06:52:01.540Z,2.42
2019-06-08T06:54:03.803Z,2.45
2019-06-08T06:56:05.948Z,2.20
2019-06-08T06:58:08.275Z,2.20
2019-06-08T07:00:10.817Z,2.58
2019-06-08T07:02:12.862Z,2.15
2019-06-08T07:04:14.995Z,2.33
2019-06-08T07:06:17.449Z,2.40
2019-06-08T07:10:21.198Z,2.70
2019-06-08T07:12:23.196Z,2.42
2019-06-08T07:14:25.288Z,3.10
2019-06-08T07:16:27.273Z,2.72
2019-06-08T07:18:29.313Z,2.65
2019-06-08T07:20:31.392Z,2.98
2019-06-08T07:22:33.536Z,3.52
2019-06-08T07:24:35.541Z,3.00
2019-06-08T07:26:37.842Z,3.42
2019-06-08T07:28:39.903Z,3.10
2019-06-08T07:30:41.924Z,2.55
2019-06-08T07:32:43.951Z,2.60
2019-06-08T07:34:46.686Z,3.05
2019-06-08T07:36:51.208Z,3.52
2019-06-08T07:38:53.511Z,2.80
2019-06-08T07:40:58.605Z,2.83
2019-06-08T07:43:00.388Z,2.87
2019-06-08T07:45:03.000Z,2.72
2019-06-08T07:47:06.048Z,2.80
2019-06-08T07:49:08.094Z,2.65
2019-06-08T07:51:10.261Z,2.30
2019-06-08T07:53:12.273Z,3.00
2019-06-08T07:55:14.361Z,2.52
2019-06-08T07:57:16.608Z,2.83
2019-06-08T07:59:18.845Z,2.60
2019-06-08T08:01:35.268Z,2.90
2019-06-08T08:03:24.759Z,3.08
2019-06-08T08:05:26.729Z,2.80
2019-06-08T08:07:28.838Z,2.75
2019-06-08T08:09:30.960Z,3.00
2019-06-08T08:11:33.270Z,2.45
2019-06-08T08:13:35.266Z,3.27
2019-06-08T08:15:38.420Z,2.47
2019-06-08T08:17:40.407Z,2.47
2019-06-08T08:19:42.476Z,2.58
2019-06-08T08:21:44.678Z,3.12
2019-06-08T08:23:47.837Z,2.40
2019-06-08T08:25:51.467Z,2.55
2019-06-08T08:27:53.627Z,2.47
2019-06-08T08:29:55.634Z,2.65
2019-06-08T08:32:00.147Z,2.67
2019-06-08T08:34:05.825Z,2.58
2019-06-08T08:36:07.295Z,3.10
2019-06-08T08:38:09.546Z,2.87
2019-06-08T08:40:11.811Z,3.05
2019-06-08T08:42:13.838Z,3.05
2019-06-08T08:44:17.653Z,3.30
2019-06-08T08:46:19.796Z,3.70
2019-06-08T08:48:28.242Z,4.20
2019-06-08T08:50:28.183Z,3.80
2019-06-08T08:52:36.404Z,4.60
2019-06-08T08:54:34.006Z,5.00
2019-06-08T08:56:38.234Z,4.33
2019-06-08T08:58:39.998Z,4.33
2019-06-08T09:00:42.142Z,4.08
2019-06-08T09:02:44.158Z,4.95
2019-06-08T09:04:47.729Z,4.60
2019-06-08T09:06:50.976Z,4.42
2019-06-08T09:08:55.677Z,3.98
2019-06-08T09:11:00.843Z,4.28
2019-06-08T09:13:04.512Z,3.08
2019-06-08T09:15:08.314Z,3.60
2019-06-08T09:17:09.877Z,3.60
2019-06-08T09:19:11.947Z,3.30
2019-06-08T09:21:13.952Z,3.22
2019-06-08T09:23:21.467Z,3.02
2019-06-08T09:25:20.917Z,3.77
2019-06-08T09:27:22.993Z,3.30
2019-06-08T09:29:25.006Z,4.17
2019-06-08T09:31:28.165Z,3.15
2019-06-08T09:33:31.307Z,3.12
2019-06-08T09:35:33.957Z,3.25
2019-06-08T09:37:37.578Z,2.80
2019-06-08T09:39:39.703Z,3.00
2019-06-08T09:41:42.253Z,2.80
2019-06-08T09:43:44.302Z,2.90
2019-06-08T09:45:48.366Z,2.67
2019-06-08T09:47:50.396Z,3.05
2019-06-08T09:49:53.779Z,3.12
2019-06-08T09:51:58.707Z,3.60
2019-06-08T09:54:03.566Z,2.50
2019-06-08T09:56:06.611Z,3.20
2019-06-08T09:58:11.580Z,3.80
2019-06-08T10:00:18.246Z,4.00
2019-06-08T10:02:18.507Z,4.17
2019-06-08T10:04:20.423Z,4.72
2019-06-08T10:06:22.446Z,4.20
2019-06-08T10:08:24.562Z,4.17
2019-06-08T10:11:46.616Z,6.67
2019-06-08T10:15:51.504Z,3.98
2019-06-08T10:17:54.804Z,3.40
2019-06-08T10:20:00.202Z,3.58
2019-06-08T10:22:01.004Z,3.75
2019-06-08T10:24:06.003Z,3.72
2019-06-08T10:26:07.276Z,3.00
2019-06-08T10:28:14.074Z,3.47
2019-06-08T10:30:16.231Z,2.47
2019-06-08T10:32:20.348Z,3.00
2019-06-08T10:34:22.406Z,2.87
2019-06-08T10:36:24.486Z,2.67
2019-06-08T10:38:28.777Z,2.52
2019-06-08T10:40:30.510Z,2.83
2019-06-08T10:42:32.608Z,3.85
2019-06-08T10:44:34.646Z,4.25
2019-06-08T10:46:40.249Z,3.60
2019-06-08T10:48:40.593Z,3.87
2019-06-08T10:50:42.633Z,3.35
2019-06-08T10:52:44.657Z,4.70
2019-06-08T10:54:46.798Z,3.30
2019-06-08T10:56:48.828Z,3.72
2019-06-08T10:58:50.952Z,4.17
2019-06-08T11:00:52.983Z,3.52
2019-06-08T11:02:55.282Z,3.60
2019-06-08T11:04:58.872Z,3.72
2019-06-08T11:07:07.213Z,3.40
2019-06-08T11:09:12.268Z,2.95
2019-06-08T11:11:11.991Z,3.17
2019-06-08T11:13:15.163Z,3.40
2019-06-08T11:15:17.773Z,3.33
2019-06-08T11:17:19.843Z,2.92
2019-06-08T11:19:21.831Z,3.45
2019-06-08T11:21:23.859Z,3.47
2019-06-08T11:23:28.767Z,3.20
2019-06-08T11:25:30.874Z,3.60
2019-06-08T11:27:32.917Z,3.30
2019-06-08T11:29:34.942Z,3.60
2019-06-08T11:31:39.263Z,3.67
2019-06-08T11:33:41.175Z,3.90
2019-06-08T11:35:43.257Z,4.30
2019-06-08T11:37:45.307Z,4.42
2019-06-08T11:39:49.162Z,4.60
2019-06-08T11:41:51.370Z,4.17
2019-06-08T11:43:53.508Z,4.50
2019-06-08T11:45:55.532Z,4.80
2019-06-08T11:47:58.579Z,4.45
2019-06-08T11:50:00.654Z,4.62
2019-06-08T11:52:04.513Z,4.45
2019-06-08T11:54:25.656Z,4.45
2019-06-08T11:56:13.300Z,4.55
2019-06-08T11:58:22.526Z,4.53
2019-06-08T12:01:05.002Z,4.65
2019-06-08T12:03:08.884Z,4.22
2019-06-08T12:05:14.167Z,4.78
2019-06-08T12:07:15.752Z,4.05
2019-06-08T12:09:18.831Z,3.80
2019-06-08T12:11:23.227Z,3.58
2019-06-08T12:13:27.622Z,4.53
2019-06-08T12:15:29.049Z,4.08
2019-06-08T12:17:31.115Z,4.42
2019-06-08T12:19:33.230Z,4.58
2019-06-08T12:21:35.451Z,4.28
2019-06-08T12:23:37.487Z,3.92
2019-06-08T12:25:39.522Z,4.58
2019-06-08T12:27:41.611Z,4.17
2019-06-08T12:29:43.730Z,4.33
2019-06-08T12:31:45.880Z,4.42
2019-06-08T12:33:48.799Z,4.50
2019-06-08T12:35:51.211Z,5.20
2019-06-08T12:37:53.246Z,4.60
2019-06-08T12:39:55.301Z,4.30
2019-06-08T12:41:58.508Z,4.30
2019-06-08T12:44:00.534Z,4.20
2019-06-08T12:46:02.593Z,3.55
2019-06-08T12:48:04.690Z,3.42
2019-06-08T12:50:08.975Z,3.77
2019-06-08T12:52:12.899Z,3.58
2019-06-08T12:54:14.769Z,4.37
2019-06-08T12:56:22.241Z,3.58
2019-06-08T12:58:22.073Z,3.33
2019-06-08T13:00:24.455Z,3.85
2019-06-08T13:02:28.042Z,3.42
2019-06-08T13:04:30.383Z,4.67
2019-06-08T13:06:32.472Z,3.80
2019-06-08T13:08:35.729Z,4.08
2019-06-08T13:10:38.458Z,4.72
2019-06-08T13:12:41.002Z,3.87
2019-06-08T13:14:43.177Z,4.15
2019-06-08T13:16:45.356Z,3.83
2019-06-08T13:18:48.187Z,3.85
2019-06-08T13:20:51.751Z,4.03
2019-06-08T13:22:54.222Z,3.55
2019-06-08T13:24:56.304Z,3.25
2019-06-08T13:26:58.410Z,3.60
2019-06-08T13:29:00.709Z,3.55
2019-06-08T13:33:04.945Z,3.27
2019-06-08T13:35:08.358Z,3.47
2019-06-08T13:37:10.666Z,4.08
2019-06-08T13:41:15.348Z,3.33
2019-06-08T13:43:19.715Z,3.95
2019-06-08T13:45:23.339Z,3.60
2019-06-08T13:47:25.474Z,2.65
2019-06-08T13:49:30.783Z,2.55
2019-06-08T13:51:31.688Z,3.17
2019-06-08T13:53:33.852Z,3.62
2019-06-08T13:55:48.692Z,3.60
2019-06-08T13:57:39.852Z,2.80
2019-06-08T13:59:41.949Z,3.35
2019-06-08T14:01:44.013Z,3.83
2019-06-08T14:03:49.819Z,3.20
2019-06-08T14:05:50.484Z,3.10
2019-06-08T14:07:52.523Z,3.77
2019-06-08T14:09:58.264Z,3.50
2019-06-08T14:12:00.300Z,3.58
2019-06-08T14:14:03.448Z,3.50
2019-06-08T14:16:05.550Z,3.27
2019-06-08T14:18:08.856Z,4.12
2019-06-08T14:20:14.834Z,3.33
2019-06-08T14:22:20.095Z,3.08
2019-06-08T14:24:26.388Z,2.80
2019-06-08T14:26:25.964Z,2.45
2019-06-08T14:28:28.990Z,3.05
2019-06-08T14:30:33.299Z,2.80
2019-06-08T14:32:37.917Z,2.83
2019-06-08T14:34:39.525Z,3.92
2019-06-08T14:36:41.693Z,3.10
2019-06-08T14:38:43.768Z,2.58
2019-06-08T14:40:47.515Z,2.90
2019-06-08T14:42:49.948Z,3.12
2019-06-08T14:44:52.001Z,3.10
2019-06-08T14:46:54.105Z,2.83
2019-06-08T14:48:58.369Z,3.15
2019-06-08T14:51:00.361Z,2.58
2019-06-08T14:53:02.445Z,2.45
2019-06-08T14:55:05.171Z,2.92
2019-06-08T14:57:07.838Z,2.70
2019-06-08T14:59:10.193Z,2.72
2019-06-08T15:01:12.243Z,2.80
2019-06-08T15:03:14.300Z,2.58
2019-06-08T15:05:18.600Z,2.90
2019-06-08T15:07:23.411Z,3.30
2019-06-08T15:09:25.587Z,3.15
2019-06-08T15:11:33.210Z,2.92
2019-06-08T15:13:31.930Z,3.27
2019-06-08T15:15:34.104Z,2.75
2019-06-08T15:17:37.932Z,2.92
2019-06-08T15:19:40.195Z,3.15
2019-06-08T15:21:42.295Z,2.75
2019-06-08T15:23:44.350Z,3.30
2019-06-08T15:25:46.558Z,2.70
2019-06-08T15:27:48.606Z,2.98
2019-06-08T15:29:50.840Z,2.85
2019-06-08T15:31:53.165Z,3.50
2019-06-08T15:33:55.206Z,2.50
2019-06-08T15:35:57.636Z,3.33
2019-06-08T15:40:01.727Z,3.25
2019-06-08T15:42:03.919Z,3.08
2019-06-08T15:44:06.018Z,2.98
2019-06-08T15:46:08.750Z,3.35
2019-06-08T15:48:11.064Z,3.67
2019-06-08T15:50:13.374Z,3.87
2019-06-08T15:52:17.393Z,3.30
2019-06-08T15:54:19.357Z,2.10
2019-06-08T15:56:36.425Z,2.47
2019-06-08T15:58:25.367Z,2.85
2019-06-08T16:00:28.368Z,2.90
2019-06-08T16:02:31.732Z,3.25
2019-06-08T16:04:34.015Z,2.87
2019-06-08T16:06:36.071Z,2.77
2019-06-08T16:08:38.346Z,3.65
2019-06-08T16:10:40.366Z,2.30
2019-06-08T16:12:42.373Z,2.98
2019-06-08T16:14:44.488Z,2.87
2019-06-08T16:16:46.586Z,2.77
2019-06-08T16:18:48.784Z,3.10
2019-06-08T16:20:50.820Z,3.33
2019-06-08T16:22:52.950Z,3.15
2019-06-08T16:24:56.025Z,3.20
2019-06-08T16:26:58.060Z,2.95
2019-06-08T16:29:00.336Z,3.58
2019-06-08T16:31:05.417Z,2.92
2019-06-08T16:33:06.395Z,3.37
2019-06-08T16:35:08.629Z,2.77
2019-06-08T16:37:10.688Z,3.08
2019-06-08T16:39:12.820Z,2.77
2019-06-08T16:41:14.814Z,3.20
2019-06-08T16:43:16.839Z,3.27
2019-06-08T16:45:18.872Z,2.98
2019-06-08T16:47:20.862Z,4.12
2019-06-08T16:49:22.987Z,3.12
2019-06-08T16:51:25.017Z,3.27
2019-06-08T16:53:27.437Z,3.08
2019-06-08T16:57:35.034Z,3.58
2019-06-08T16:59:36.617Z,2.02
2019-06-08T17:01:39.263Z,3.85
2019-06-08T17:03:41.391Z,2.20
2019-06-08T17:05:43.427Z,3.08
2019-06-08T17:07:45.439Z,2.37
2019-06-08T17:09:47.668Z,2.70
2019-06-08T17:11:50.429Z,2.72
2019-06-08T17:13:52.656Z,2.60
2019-06-08T17:15:54.698Z,2.98
2019-06-08T17:17:56.775Z,2.22
2019-06-08T17:19:58.808Z,2.58
2019-06-08T17:22:01.084Z,3.05
2019-06-08T17:24:03.134Z,3.20
2019-06-08T17:26:05.194Z,3.25
2019-06-08T17:28:07.235Z,2.80
2019-06-08T17:30:09.670Z,2.37
2019-06-08T17:34:13.695Z,2.45
2019-06-08T17:36:15.823Z,2.05
2019-06-08T17:38:19.151Z,2.37
2019-06-08T17:42:23.165Z,2.58
2019-06-08T17:44:25.217Z,2.12
2019-06-08T17:46:27.305Z,2.47
2019-06-08T17:48:29.363Z,2.77
2019-06-08T17:50:32.672Z,2.72
2019-06-08T17:52:34.857Z,2.25
2019-06-08T17:54:36.894Z,2.15
2019-06-08T17:56:39.221Z,2.60
2019-06-08T17:58:43.376Z,2.17
2019-06-08T18:00:46.250Z,2.72
2019-06-08T18:02:48.882Z,2.83
2019-06-08T18:04:51.726Z,3.08
2019-06-08T18:06:54.510Z,2.40
2019-06-08T18:08:58.715Z,2.67
2019-06-08T18:11:01.813Z,2.52
2019-06-08T18:13:04.202Z,2.85
2019-06-08T18:15:07.681Z,2.87
2019-06-08T18:17:10.368Z,2.75
2019-06-08T18:21:30.207Z,1.92
2019-06-08T18:23:32.318Z,3.25
2019-06-08T18:25:37.535Z,2.47
2019-06-08T18:27:41.310Z,2.10
2019-06-08T18:29:44.408Z,2.58
2019-06-08T18:34:04.281Z,2.42
2019-06-08T18:36:07.706Z,2.50
2019-06-08T18:38:10.125Z,2.30
2019-06-08T18:42:17.623Z,2.35
2019-06-08T18:44:20.447Z,2.62
2019-06-08T18:48:25.014Z,2.00
2019-06-08T18:50:30.545Z,2.33
2019-06-08T18:52:35.329Z,2.90
2019-06-08T18:54:41.115Z,2.67
2019-06-08T18:56:48.672Z,3.40
2019-06-08T18:58:53.538Z,3.10
2019-06-08T19:00:57.538Z,2.67
2019-06-08T19:02:59.754Z,3.95
2019-06-08T19:05:02.425Z,2.60
2019-06-08T19:07:07.716Z,3.40
2019-06-08T19:09:12.403Z,2.83
2019-06-08T19:11:16.769Z,2.50
2019-06-08T19:13:19.534Z,3.02
2019-06-08T19:15:29.530Z,3.05
2019-06-08T19:17:31.763Z,3.20
2019-06-08T19:19:34.087Z,3.00
2019-06-08T19:21:37.606Z,2.50
2019-06-08T19:23:43.335Z,2.55
2019-06-08T19:25:48.362Z,3.22
2019-06-08T19:27:53.082Z,2.65
2019-06-08T19:29:54.551Z,3.20
2019-06-08T19:32:00.462Z,2.70
2019-06-08T19:34:02.827Z,2.50
2019-06-08T19:38:07.535Z,2.90
2019-06-08T19:40:11.741Z,3.05
2019-06-08T19:42:14.146Z,2.95
2019-06-08T19:46:20.248Z,3.33
2019-06-08T19:50:28.646Z,2.58
2019-06-08T19:52:30.558Z,2.40
2019-06-08T19:54:33.192Z,2.65
2019-06-08T19:56:35.351Z,2.62
2019-06-08T19:58:50.566Z,3.05
2019-06-08T20:00:42.339Z,2.98
2019-06-08T20:02:47.778Z,3.05
2019-06-08T20:04:50.695Z,2.67
2019-06-08T20:06:53.194Z,2.85
2019-06-08T20:11:21.912Z,3.35
2019-06-08T20:15:27.615Z,2.83
2019-06-08T20:17:30.050Z,3.08
2019-06-08T20:21:37.987Z,3.07
2019-06-08T20:23:41.126Z,5.03
2019-06-08T20:25:45.221Z,2.65
2019-06-08T20:27:50.344Z,3.50
2019-06-08T20:29:54.006Z,2.77
2019-06-08T20:31:58.413Z,2.83
2019-06-08T20:34:01.030Z,3.08
2019-06-08T20:38:08.105Z,3.07
2019-06-08T20:40:14.050Z,2.75
2019-06-08T20:42:17.198Z,2.90
2019-06-08T20:44:19.180Z,2.45
2019-06-08T20:48:27.549Z,2.60
2019-06-08T20:50:30.852Z,2.50
2019-06-08T20:52:33.337Z,2.42
2019-06-08T20:54:36.815Z,2.80
2019-06-08T20:56:41.126Z,3.70
2019-06-08T20:58:45.377Z,2.75
2019-06-08T21:00:50.120Z,2.42
2019-06-08T21:02:54.860Z,2.35
2019-06-08T21:04:59.419Z,3.08
2019-06-08T21:07:02.151Z,2.58
2019-06-08T21:09:07.792Z,3.40
2019-06-08T21:11:11.756Z,2.85
2019-06-08T21:13:14.188Z,2.75
2019-06-08T21:17:20.462Z,2.92
2019-06-08T21:19:24.603Z,2.55
2019-06-08T21:21:28.373Z,2.80
2019-06-08T21:23:32.805Z,2.70
2019-06-08T21:25:41.572Z,2.60
2019-06-08T21:27:48.064Z,3.10
2019-06-08T21:29:57.794Z,2.40
2019-06-08T21:31:56.330Z,2.90
2019-06-08T21:34:00.838Z,2.62
2019-06-08T21:36:04.874Z,3.30
2019-06-08T21:38:22.668Z,2.70
2019-06-08T21:40:17.610Z,2.75
2019-06-08T21:42:20.058Z,3.05
2019-06-08T21:44:22.394Z,3.30
2019-06-08T21:46:24.754Z,3.20
2019-06-08T21:50:30.063Z,2.72
2019-06-08T21:52:32.501Z,2.45
2019-06-08T21:54:34.753Z,2.42
2019-06-08T21:56:37.372Z,2.80
2019-06-08T21:58:39.595Z,2.77
2019-06-08T22:00:43.545Z,2.80
2019-06-08T22:02:48.108Z,2.77
2019-06-08T22:06:59.021Z,2.87
2019-06-08T22:09:01.188Z,3.12
2019-06-08T22:11:05.262Z,2.70
2019-06-08T22:13:10.361Z,3.05
2019-06-08T22:15:12.638Z,3.10
2019-06-08T22:17:16.053Z,3.17
2019-06-08T22:19:19.318Z,2.87
2019-06-08T22:21:21.808Z,3.45
2019-06-08T22:23:25.087Z,2.77
2019-06-08T22:25:27.886Z,3.00
2019-06-08T22:27:30.382Z,3.35
2019-06-08T22:31:37.050Z,2.80
2019-06-08T22:33:39.518Z,3.33
2019-06-08T22:35:43.282Z,2.62
2019-06-08T22:37:47.931Z,2.92
2019-06-08T22:39:51.095Z,3.40
2019-06-08T22:41:55.478Z,2.87
2019-06-08T22:44:00.786Z,2.35
2019-06-08T22:46:03.488Z,3.45
2019-06-08T22:48:08.135Z,3.08
2019-06-08T22:50:11.351Z,2.87
2019-06-08T22:52:13.861Z,3.00
2019-06-08T22:54:17.035Z,4.17
2019-06-08T22:56:19.804Z,2.62
2019-06-08T22:58:22.841Z,4.17
2019-06-08T23:00:27.934Z,2.67
2019-06-08T23:02:30.523Z,2.98
2019-06-08T23:04:32.981Z,3.50
2019-06-08T23:06:35.692Z,3.02
2019-06-08T23:08:37.910Z,4.17
2019-06-08T23:10:40.316Z,3.62
2019-06-08T23:14:47.121Z,3.33
2019-06-08T23:16:49.554Z,2.72
2019-06-08T23:20:15.362Z,3.30
2019-06-08T23:22:20.435Z,3.52
2019-06-08T23:24:23.973Z,3.35
2019-06-08T23:26:27.605Z,2.92
2019-06-08T23:28:32.040Z,2.92
2019-06-08T23:30:34.368Z,3.25
2019-06-08T23:32:38.581Z,3.22
2019-06-08T23:34:42.910Z,3.10
2019-06-08T23:36:57.567Z,5.00
2019-06-08T23:38:49.679Z,3.80
2019-06-08T23:40:52.928Z,3.92
2019-06-08T23:42:55.229Z,3.58
2019-06-08T23:44:58.890Z,4.47
2019-06-08T23:47:02.865Z,2.85
2019-06-08T23:49:07.758Z,3.58
2019-06-08T23:51:11.054Z,3.50
2019-06-08T23:55:41.549Z,3.75
2019-06-08T23:57:44.181Z,3.12
2019-06-08T23:59:47.788Z,3.17
